sensor_id;sensor_type;location;lat;lon;timestamp;pressure;altitude;pressure_sealevel;temperature;humidity
63819;BME280;49970;54.976;73.248;2023-10-31T00:02:01;99921.50;;;-4.71;89.61
63819;BME280;49970;54.976;73.248;2023-10-31T00:04:28;99932.66;;;-4.68;89.13
63819;BME280;49970;54.976;73.248;2023-10-31T00:07:14;99927.53;;;-4.72;89.09
63819;BME280;49970;54.976;73.248;2023-10-31T00:10:45;99927.59;;;-4.77;88.82
63819;BME280;49970;54.976;73.248;2023-10-31T00:14:15;99933.69;;;-4.80;88.67
63819;BME280;49970;54.976;73.248;2023-10-31T00:17:26;99939.78;;;-4.84;88.81
63819;BME280;49970;54.976;73.248;2023-10-31T00:19:53;99933.75;;;-4.84;88.55
63819;BME280;49970;54.976;73.248;2023-10-31T00:22:19;99935.50;;;-4.86;89.23
63819;BME280;49970;54.976;73.248;2023-10-31T00:24:45;99942.38;;;-4.87;88.44
63819;BME280;49970;54.976;73.248;2023-10-31T00:27:11;99936.41;;;-4.89;88.71
63819;BME280;49970;54.976;73.248;2023-10-31T00:29:38;99939.03;;;-4.93;88.66
63819;BME280;49970;54.976;73.248;2023-10-31T00:32:05;99940.78;;;-4.95;88.67
63819;BME280;49970;54.976;73.248;2023-10-31T00:34:32;99938.16;;;-4.94;89.38
63819;BME280;49970;54.976;73.248;2023-10-31T00:36:59;99938.25;;;-4.97;89.03
63819;BME280;49970;54.976;73.248;2023-10-31T00:39:25;99951.03;;;-4.89;88.82
63819;BME280;49970;54.976;73.248;2023-10-31T00:41:51;99951.03;;;-4.89;88.81
63819;BME280;49970;54.976;73.248;2023-10-31T00:44:17;99951.03;;;-4.89;88.83
63819;BME280;49970;54.976;73.248;2023-10-31T00:46:44;99966.59;;;-4.94;89.09
63819;BME280;49970;54.976;73.248;2023-10-31T00:49:11;99946.84;;;-4.98;89.27
63819;BME280;49970;54.976;73.248;2023-10-31T00:51:37;99945.94;;;-4.95;89.23
63819;BME280;49970;54.976;73.248;2023-10-31T00:54:03;99952.81;;;-4.94;89.30
63819;BME280;49970;54.976;73.248;2023-10-31T00:56:29;99957.06;;;-4.90;88.82
63819;BME280;49970;54.976;73.248;2023-10-31T00:58:57;99954.53;;;-4.93;88.73
63819;BME280;49970;54.976;73.248;2023-10-31T01:01:23;99953.72;;;-4.97;88.75
63819;BME280;49970;54.976;73.248;2023-10-31T01:03:49;99955.44;;;-4.97;88.87
63819;BME280;49970;54.976;73.248;2023-10-31T01:06:15;99958.09;;;-5.01;88.36
63819;BME280;49970;54.976;73.248;2023-10-31T01:08:41;99962.38;;;-4.99;88.41
63819;BME280;49970;54.976;73.248;2023-10-31T01:11:08;99958.09;;;-5.02;88.74
63819;BME280;49970;54.976;73.248;2023-10-31T01:13:34;99957.28;;;-5.07;88.69
63819;BME280;49970;54.976;73.248;2023-10-31T01:16:00;99959.94;;;-5.12;88.23
63819;BME280;49970;54.976;73.248;2023-10-31T01:18:27;99958.22;;;-5.10;88.14
63819;BME280;49970;54.976;73.248;2023-10-31T01:20:53;99965.06;;;-5.09;88.88
63819;BME280;49970;54.976;73.248;2023-10-31T01:23:19;99966.78;;;-5.08;89.61
63819;BME280;49970;54.976;73.248;2023-10-31T01:26:05;99968.53;;;-5.10;89.29
63819;BME280;49970;54.976;73.248;2023-10-31T01:29:36;99964.16;;;-5.05;89.88
63819;BME280;49970;54.976;73.248;2023-10-31T01:33:49;99971.09;;;-5.08;88.79
63819;BME280;49970;54.976;73.248;2023-10-31T01:36:15;99976.28;;;-5.11;89.33
63819;BME280;49970;54.976;73.248;2023-10-31T01:38:41;99971.16;;;-5.14;88.84
63819;BME280;49970;54.976;73.248;2023-10-31T01:41:07;99977.13;;;-5.09;89.28
63819;BME280;49970;54.976;73.248;2023-10-31T01:43:38;99975.44;;;-5.12;89.20
63819;BME280;49970;54.976;73.248;2023-10-31T01:46:04;99977.16;;;-5.12;89.07
63819;BME280;49970;54.976;73.248;2023-10-31T01:48:32;99973.72;;;-5.14;88.85
63819;BME280;49970;54.976;73.248;2023-10-31T01:50:59;99969.59;;;-5.26;88.71
63819;BME280;49970;54.976;73.248;2023-10-31T01:53:28;100003.06;;;-5.20;89.06
63819;BME280;49970;54.976;73.248;2023-10-31T01:55:58;99980.84;;;-5.30;88.63
63819;BME280;49970;54.976;73.248;2023-10-31T01:58:30;99991.09;;;-5.27;88.86
63819;BME280;49970;54.976;73.248;2023-10-31T02:00:57;99992.84;;;-5.26;88.98
63819;BME280;49970;54.976;73.248;2023-10-31T02:03:23;99997.94;;;-5.23;89.34
63819;BME280;49970;54.976;73.248;2023-10-31T02:05:51;100001.41;;;-5.24;88.76
63819;BME280;49970;54.976;73.248;2023-10-31T02:08:19;100004.88;;;-5.25;88.73
63819;BME280;49970;54.976;73.248;2023-10-31T02:10:45;100008.25;;;-5.20;89.07
63819;BME280;49970;54.976;73.248;2023-10-31T02:13:16;100014.22;;;-5.16;89.19
63819;BME280;49970;54.976;73.248;2023-10-31T02:15:43;100003.97;;;-5.21;88.58
63819;BME280;49970;54.976;73.248;2023-10-31T02:18:10;100003.97;;;-5.21;89.11
63819;BME280;49970;54.976;73.248;2023-10-31T02:20:37;100003.94;;;-5.19;88.80
63819;BME280;49970;54.976;73.248;2023-10-31T02:23:04;100013.44;;;-5.21;88.77
63819;BME280;49970;54.976;73.248;2023-10-31T02:25:30;100011.69;;;-5.21;88.56
63819;BME280;49970;54.976;73.248;2023-10-31T02:27:57;100010.00;;;-5.23;88.86
63819;BME280;49970;54.976;73.248;2023-10-31T02:30:24;100004.84;;;-5.22;88.90
63819;BME280;49970;54.976;73.248;2023-10-31T02:36:40;100026.34;;;-5.23;88.34
63819;BME280;49970;54.976;73.248;2023-10-31T02:40:11;100027.22;;;-5.24;88.02
63819;BME280;49970;54.976;73.248;2023-10-31T02:43:42;100022.13;;;-5.30;88.11
63819;BME280;49970;54.976;73.248;2023-10-31T02:47:12;100042.78;;;-5.30;88.63
63819;BME280;49970;54.976;73.248;2023-10-31T02:50:43;100048.91;;;-5.39;88.47
63819;BME280;49970;54.976;73.248;2023-10-31T02:54:15;100051.50;;;-5.39;87.85
63819;BME280;49970;54.976;73.248;2023-10-31T02:57:45;100039.50;;;-5.43;88.46
63819;BME280;49970;54.976;73.248;2023-10-31T03:01:17;100059.13;;;-5.31;88.13
63819;BME280;49970;54.976;73.248;2023-10-31T03:04:29;100060.03;;;-5.35;88.04
63819;BME280;49970;54.976;73.248;2023-10-31T03:06:55;100059.22;;;-5.37;87.99
63819;BME280;49970;54.976;73.248;2023-10-31T03:09:23;100055.69;;;-5.32;88.06
63819;BME280;49970;54.976;73.248;2023-10-31T03:11:49;100069.41;;;-5.25;88.65
63819;BME280;49970;54.976;73.248;2023-10-31T03:14:15;100059.94;;;-5.28;88.05
63819;BME280;49970;54.976;73.248;2023-10-31T03:16:41;100066.78;;;-5.22;87.79
63819;BME280;49970;54.976;73.248;2023-10-31T03:19:08;100052.16;;;-5.23;87.90
63819;BME280;49970;54.976;73.248;2023-10-31T03:21:34;100060.75;;;-5.21;87.62
63819;BME280;49970;54.976;73.248;2023-10-31T03:24:00;100070.19;;;-5.17;87.87
63819;BME280;49970;54.976;73.248;2023-10-31T03:26:27;100075.38;;;-5.20;88.09
63819;BME280;49970;54.976;73.248;2023-10-31T03:28:53;100068.47;;;-5.18;88.00
63819;BME280;49970;54.976;73.248;2023-10-31T03:31:23;100072.75;;;-5.17;87.99
63819;BME280;49970;54.976;73.248;2023-10-31T03:33:50;100066.75;;;-5.19;88.12
63819;BME280;49970;54.976;73.248;2023-10-31T03:36:18;100087.34;;;-5.14;87.48
63819;BME280;49970;54.976;73.248;2023-10-31T03:38:44;100071.06;;;-5.19;87.37
63819;BME280;49970;54.976;73.248;2023-10-31T03:41:11;100080.50;;;-5.17;87.40
63819;BME280;49970;54.976;73.248;2023-10-31T03:43:37;100088.22;;;-5.14;87.43
63819;BME280;49970;54.976;73.248;2023-10-31T03:46:04;100095.97;;;-5.15;87.52
63819;BME280;49970;54.976;73.248;2023-10-31T03:48:30;100092.53;;;-5.16;87.24
63819;BME280;49970;54.976;73.248;2023-10-31T03:50:56;100098.56;;;-5.14;87.01
63819;BME280;49970;54.976;73.248;2023-10-31T03:53:23;100090.88;;;-5.23;87.01
63819;BME280;49970;54.976;73.248;2023-10-31T03:55:49;100087.41;;;-5.20;87.24
63819;BME280;49970;54.976;73.248;2023-10-31T03:58:15;100096.84;;;-5.16;86.62
63819;BME280;49970;54.976;73.248;2023-10-31T04:00:41;100093.38;;;-5.15;87.33
63819;BME280;49970;54.976;73.248;2023-10-31T04:03:08;100095.16;;;-5.17;87.06
63819;BME280;49970;54.976;73.248;2023-10-31T04:05:34;100100.28;;;-5.16;86.79
63819;BME280;49970;54.976;73.248;2023-10-31T04:08:01;100098.56;;;-5.15;86.87
63819;BME280;49970;54.976;73.248;2023-10-31T04:10:28;100095.06;;;-5.11;87.09
63819;BME280;49970;54.976;73.248;2023-10-31T04:12:54;100117.38;;;-5.04;86.70
63819;BME280;49970;54.976;73.248;2023-10-31T04:15:20;100104.50;;;-5.06;86.73
63819;BME280;49970;54.976;73.248;2023-10-31T04:17:46;100107.94;;;-5.07;86.56
63819;BME280;49970;54.976;73.248;2023-10-31T04:20:13;100112.19;;;-5.01;86.94
63819;BME280;49970;54.976;73.248;2023-10-31T04:22:39;100103.63;;;-5.05;86.41
63819;BME280;49970;54.976;73.248;2023-10-31T04:25:05;100106.16;;;-5.02;86.45
63819;BME280;49970;54.976;73.248;2023-10-31T04:27:32;100102.72;;;-5.04;86.22
63819;BME280;49970;54.976;73.248;2023-10-31T04:29:58;100102.69;;;-5.02;86.37
63819;BME280;49970;54.976;73.248;2023-10-31T04:32:24;100103.50;;;-4.95;86.40
63819;BME280;49970;54.976;73.248;2023-10-31T04:34:50;100107.78;;;-4.94;86.02
63819;BME280;49970;54.976;73.248;2023-10-31T04:37:16;100113.75;;;-4.89;86.26
63819;BME280;49970;54.976;73.248;2023-10-31T04:39:43;100107.66;;;-4.82;86.32
63819;BME280;49970;54.976;73.248;2023-10-31T04:42:09;100104.28;;;-4.87;86.34
63819;BME280;49970;54.976;73.248;2023-10-31T04:44:35;100113.66;;;-4.82;86.27
63819;BME280;49970;54.976;73.248;2023-10-31T04:47:01;100087.16;;;-4.96;85.83
63819;BME280;49970;54.976;73.248;2023-10-31T04:49:27;100113.69;;;-4.83;85.67
63819;BME280;49970;54.976;73.248;2023-10-31T04:51:54;100116.31;;;-4.86;85.96
63819;BME280;49970;54.976;73.248;2023-10-31T04:54:20;100116.31;;;-4.86;85.74
63819;BME280;49970;54.976;73.248;2023-10-31T04:56:47;100118.91;;;-4.85;85.31
63819;BME280;49970;54.976;73.248;2023-10-31T04:59:13;100127.50;;;-4.86;85.47
63819;BME280;49970;54.976;73.248;2023-10-31T05:01:40;100130.06;;;-4.84;85.26
63819;BME280;49970;54.976;73.248;2023-10-31T05:04:06;100126.63;;;-4.86;85.64
63819;BME280;49970;54.976;73.248;2023-10-31T05:06:32;100138.63;;;-4.79;85.73
63819;BME280;49970;54.976;73.248;2023-10-31T05:08:58;100131.69;;;-4.77;85.40
63819;BME280;49970;54.976;73.248;2023-10-31T05:11:25;100137.75;;;-4.78;85.26
63819;BME280;49970;54.976;73.248;2023-10-31T05:13:51;100117.19;;;-4.87;85.13
63819;BME280;49970;54.976;73.248;2023-10-31T05:16:17;100137.72;;;-4.75;84.64
63819;BME280;49970;54.976;73.248;2023-10-31T05:18:43;100143.81;;;-4.81;84.24
63819;BME280;49970;54.976;73.248;2023-10-31T05:21:09;100152.47;;;-4.85;85.12
63819;BME280;49970;54.976;73.248;2023-10-31T05:23:35;100151.59;;;-4.85;84.94
63819;BME280;49970;54.976;73.248;2023-10-31T05:26:05;100163.59;;;-4.80;84.69
63819;BME280;49970;54.976;73.248;2023-10-31T05:28:31;100154.97;;;-4.79;84.68
63819;BME280;49970;54.976;73.248;2023-10-31T05:30:57;100169.47;;;-4.64;84.87
63819;BME280;49970;54.976;73.248;2023-10-31T05:33:23;100172.97;;;-4.69;84.48
63819;BME280;49970;54.976;73.248;2023-10-31T05:35:49;100173.88;;;-4.77;83.76
63819;BME280;49970;54.976;73.248;2023-10-31T05:38:16;100181.69;;;-4.81;84.11
63819;BME280;49970;54.976;73.248;2023-10-31T05:40:42;100184.22;;;-4.75;84.57
63819;BME280;49970;54.976;73.248;2023-10-31T05:43:09;100182.44;;;-4.70;84.22
63819;BME280;49970;54.976;73.248;2023-10-31T05:45:35;100179.00;;;-4.70;84.10
63819;BME280;49970;54.976;73.248;2023-10-31T05:48:01;100192.66;;;-4.59;83.98
63819;BME280;49970;54.976;73.248;2023-10-31T05:50:27;100204.69;;;-4.57;83.65
63819;BME280;49970;54.976;73.248;2023-10-31T05:52:53;100202.22;;;-4.66;83.35
63819;BME280;49970;54.976;73.248;2023-10-31T05:55:20;100208.22;;;-4.65;83.49
63819;BME280;49970;54.976;73.248;2023-10-31T05:57:46;100214.28;;;-4.66;83.64
63819;BME280;49970;54.976;73.248;2023-10-31T06:00:12;100213.41;;;-4.68;83.47
63819;BME280;49970;54.976;73.248;2023-10-31T06:02:39;100204.84;;;-4.70;83.11
63819;BME280;49970;54.976;73.248;2023-10-31T06:05:05;100209.94;;;-4.63;83.09
63819;BME280;49970;54.976;73.248;2023-10-31T06:07:32;100207.34;;;-4.64;83.13
63819;BME280;49970;54.976;73.248;2023-10-31T06:09:59;100212.50;;;-4.60;83.04
63819;BME280;49970;54.976;73.248;2023-10-31T06:12:25;100212.47;;;-4.58;82.85
63819;BME280;49970;54.976;73.248;2023-10-31T06:14:53;100217.59;;;-4.57;83.23
63819;BME280;49970;54.976;73.248;2023-10-31T06:17:19;100212.41;;;-4.54;82.57
63819;BME280;49970;54.976;73.248;2023-10-31T06:19:45;100217.50;;;-4.47;82.81
63819;BME280;49970;54.976;73.248;2023-10-31T06:22:13;100222.59;;;-4.38;83.09
63819;BME280;49970;54.976;73.248;2023-10-31T06:24:39;100223.44;;;-4.39;82.39
63819;BME280;49970;54.976;73.248;2023-10-31T06:27:06;100220.88;;;-4.41;82.57
63819;BME280;49970;54.976;73.248;2023-10-31T06:29:52;100233.78;;;-4.39;82.25
63819;BME280;49970;54.976;73.248;2023-10-31T06:33:04;100231.25;;;-4.42;83.03
63819;BME280;49970;54.976;73.248;2023-10-31T06:35:30;100227.84;;;-4.47;82.28
63819;BME280;49970;54.976;73.248;2023-10-31T06:37:56;100244.13;;;-4.39;82.66
63819;BME280;49970;54.976;73.248;2023-10-31T06:40:24;100228.66;;;-4.44;81.67
63819;BME280;49970;54.976;73.248;2023-10-31T06:42:51;100226.13;;;-4.47;82.21
63819;BME280;49970;54.976;73.248;2023-10-31T06:45:17;100225.25;;;-4.46;82.15
63819;BME280;49970;54.976;73.248;2023-10-31T06:47:43;100234.72;;;-4.45;81.65
63819;BME280;49970;54.976;73.248;2023-10-31T06:50:09;100240.75;;;-4.43;82.39
63819;BME280;49970;54.976;73.248;2023-10-31T06:52:36;100235.56;;;-4.44;81.75
63819;BME280;49970;54.976;73.248;2023-10-31T06:55:02;100239.84;;;-4.42;81.65
63819;BME280;49970;54.976;73.248;2023-10-31T06:57:28;100234.69;;;-4.43;81.25
63819;BME280;49970;54.976;73.248;2023-10-31T06:59:55;100235.50;;;-4.38;82.04
63819;BME280;49970;54.976;73.248;2023-10-31T07:02:21;100252.78;;;-4.42;81.80
63819;BME280;49970;54.976;73.248;2023-10-31T07:04:47;100249.34;;;-4.42;81.27
63819;BME280;49970;54.976;73.248;2023-10-31T07:07:14;100255.38;;;-4.42;81.54
63819;BME280;49970;54.976;73.248;2023-10-31T07:09:40;100263.03;;;-4.36;81.79
63819;BME280;49970;54.976;73.248;2023-10-31T07:12:06;100262.13;;;-4.30;81.37
63819;BME280;49970;54.976;73.248;2023-10-31T07:14:34;100268.16;;;-4.30;81.36
63819;BME280;49970;54.976;73.248;2023-10-31T07:17:00;100267.34;;;-4.33;81.23
63819;BME280;49970;54.976;73.248;2023-10-31T07:19:26;100269.84;;;-4.27;80.87
63819;BME280;49970;54.976;73.248;2023-10-31T07:21:52;100274.06;;;-4.20;81.64
63819;BME280;49970;54.976;73.248;2023-10-31T07:24:38;100268.94;;;-4.21;81.04
63819;BME280;49970;54.976;73.248;2023-10-31T07:27:05;100270.66;;;-4.22;80.97
63819;BME280;49970;54.976;73.248;2023-10-31T07:29:31;100273.34;;;-4.30;80.79
63819;BME280;49970;54.976;73.248;2023-10-31T07:31:57;100269.97;;;-4.39;80.49
63819;BME280;49970;54.976;73.248;2023-10-31T07:34:23;100275.19;;;-4.42;80.78
63819;BME280;49970;54.976;73.248;2023-10-31T07:36:50;100276.09;;;-4.48;81.39
63819;BME280;49970;54.976;73.248;2023-10-31T07:39:16;100288.19;;;-4.47;81.08
63819;BME280;49970;54.976;73.248;2023-10-31T07:41:42;100283.94;;;-4.56;80.62
63819;BME280;49970;54.976;73.248;2023-10-31T07:44:09;100300.38;;;-4.63;81.17
63819;BME280;49970;54.976;73.248;2023-10-31T07:46:36;100297.84;;;-4.67;80.71
63819;BME280;49970;54.976;73.248;2023-10-31T07:49:02;100303.97;;;-4.76;80.87
63819;BME280;49970;54.976;73.248;2023-10-31T07:51:28;100304.81;;;-4.77;81.26
63819;BME280;49970;54.976;73.248;2023-10-31T07:53:55;100296.25;;;-4.81;80.68
63819;BME280;49970;54.976;73.248;2023-10-31T07:56:41;100314.22;;;-4.70;80.96
63819;BME280;49970;54.976;73.248;2023-10-31T07:59:52;100306.41;;;-4.62;80.83
63819;BME280;49970;54.976;73.248;2023-10-31T08:02:20;100314.19;;;-4.64;80.69
63819;BME280;49970;54.976;73.248;2023-10-31T08:04:55;100315.88;;;-4.64;80.41
63819;BME280;49970;54.976;73.248;2023-10-31T08:07:27;100316.72;;;-4.61;80.81
63819;BME280;49970;54.976;73.248;2023-10-31T08:09:58;100321.91;;;-4.62;80.84
63819;BME280;49970;54.976;73.248;2023-10-31T08:12:31;100324.44;;;-4.55;80.61
63819;BME280;49970;54.976;73.248;2023-10-31T08:15:06;100327.81;;;-4.46;81.05
63819;BME280;49970;54.976;73.248;2023-10-31T08:17:36;100326.81;;;-4.36;80.93
63819;BME280;49970;54.976;73.248;2023-10-31T08:20:06;100328.53;;;-4.34;80.45
63819;BME280;49970;54.976;73.248;2023-10-31T08:22:36;100316.59;;;-4.48;80.69
63819;BME280;49970;54.976;73.248;2023-10-31T08:25:25;100325.09;;;-4.34;80.64
63819;BME280;49970;54.976;73.248;2023-10-31T08:28:37;100335.47;;;-4.37;80.53
63819;BME280;49970;54.976;73.248;2023-10-31T08:31:10;100336.34;;;-4.40;80.10
63819;BME280;49970;54.976;73.248;2023-10-31T08:33:50;100351.03;;;-4.45;79.96
63819;BME280;49970;54.976;73.248;2023-10-31T08:36:21;100341.53;;;-4.41;80.00
63819;BME280;49970;54.976;73.248;2023-10-31T08:38:51;100346.69;;;-4.41;79.62
63819;BME280;49970;54.976;73.248;2023-10-31T08:41:22;100344.94;;;-4.39;79.96
63819;BME280;49970;54.976;73.248;2023-10-31T08:43:50;100337.19;;;-4.38;79.81
63819;BME280;49970;54.976;73.248;2023-10-31T08:46:19;100353.53;;;-4.34;79.61
63819;BME280;49970;54.976;73.248;2023-10-31T08:48:50;100342.38;;;-4.38;79.71
63819;BME280;49970;54.976;73.248;2023-10-31T08:51:20;100349.19;;;-4.32;80.06
63819;BME280;49970;54.976;73.248;2023-10-31T08:53:50;100350.88;;;-4.28;79.67
63819;BME280;49970;54.976;73.248;2023-10-31T08:56:22;100357.69;;;-4.18;79.98
63819;BME280;49970;54.976;73.248;2023-10-31T08:58:52;100355.09;;;-4.18;79.58
63819;BME280;49970;54.976;73.248;2023-10-31T09:01:20;100348.19;;;-4.19;78.94
63819;BME280;49970;54.976;73.248;2023-10-31T09:03:52;100360.31;;;-4.24;79.77
63819;BME280;49970;54.976;73.248;2023-10-31T09:06:23;100367.28;;;-4.32;79.32
63819;BME280;49970;54.976;73.248;2023-10-31T09:08:53;100375.06;;;-4.35;79.33
63819;BME280;49970;54.976;73.248;2023-10-31T09:11:23;100376.00;;;-4.41;79.18
63819;BME280;49970;54.976;73.248;2023-10-31T09:13:53;100377.75;;;-4.44;79.54
63819;BME280;49970;54.976;73.248;2023-10-31T09:16:23;100382.88;;;-4.40;78.88
63819;BME280;49970;54.976;73.248;2023-10-31T09:18:52;100382.81;;;-4.35;79.53
63819;BME280;49970;54.976;73.248;2023-10-31T09:21:21;100381.94;;;-4.30;78.98
63819;BME280;49970;54.976;73.248;2023-10-31T09:23:50;100378.50;;;-4.33;79.16
63819;BME280;49970;54.976;73.248;2023-10-31T09:26:21;100383.69;;;-4.33;79.20
63819;BME280;49970;54.976;73.248;2023-10-31T09:28:54;100390.53;;;-4.31;79.18
63819;BME280;49970;54.976;73.248;2023-10-31T09:31:25;100399.16;;;-4.29;78.90
63819;BME280;49970;54.976;73.248;2023-10-31T09:33:58;100396.59;;;-4.30;79.10
63819;BME280;49970;54.976;73.248;2023-10-31T09:36:29;100412.03;;;-4.21;79.17
63819;BME280;49970;54.976;73.248;2023-10-31T09:38:59;100412.81;;;-4.14;79.85
63819;BME280;49970;54.976;73.248;2023-10-31T09:41:29;100403.34;;;-4.15;79.83
63819;BME280;49970;54.976;73.248;2023-10-31T09:44:03;100420.47;;;-4.04;79.59
63819;BME280;49970;54.976;73.248;2023-10-31T09:46:34;100414.50;;;-4.09;79.19
63819;BME280;49970;54.976;73.248;2023-10-31T09:49:04;100429.16;;;-4.09;78.93
63819;BME280;49970;54.976;73.248;2023-10-31T09:51:34;100435.19;;;-4.09;78.93
63819;BME280;49970;54.976;73.248;2023-10-31T09:54:04;100440.31;;;-4.06;78.59
63819;BME280;49970;54.976;73.248;2023-10-31T09:56:33;100438.63;;;-4.08;78.85
63819;BME280;49970;54.976;73.248;2023-10-31T09:59:03;100446.38;;;-4.05;79.03
63819;BME280;49970;54.976;73.248;2023-10-31T10:01:33;100446.38;;;-4.10;78.56
63819;BME280;49970;54.976;73.248;2023-10-31T10:04:02;100445.53;;;-4.09;78.65
63819;BME280;49970;54.976;73.248;2023-10-31T10:06:31;100458.41;;;-4.01;79.35
63819;BME280;49970;54.976;73.248;2023-10-31T10:09:01;100459.22;;;-3.99;78.83
63819;BME280;49970;54.976;73.248;2023-10-31T10:11:33;100460.09;;;-4.02;79.14
63819;BME280;49970;54.976;73.248;2023-10-31T10:14:05;100463.56;;;-4.03;78.86
63819;BME280;49970;54.976;73.248;2023-10-31T10:16:37;100473.84;;;-3.95;78.64
63819;BME280;49970;54.976;73.248;2023-10-31T10:19:20;100468.72;;;-3.96;78.60
63819;BME280;49970;54.976;73.248;2023-10-31T10:21:54;100486.75;;;-3.93;78.56
63819;BME280;49970;54.976;73.248;2023-10-31T10:24:25;100484.22;;;-3.98;78.34
63819;BME280;49970;54.976;73.248;2023-10-31T10:26:54;100484.28;;;-4.01;78.39
63819;BME280;49970;54.976;73.248;2023-10-31T10:29:24;100481.69;;;-4.03;78.87
63819;BME280;49970;54.976;73.248;2023-10-31T10:31:56;100494.63;;;-4.06;78.34
63819;BME280;49970;54.976;73.248;2023-10-31T10:34:31;100497.22;;;-4.06;78.86
63819;BME280;49970;54.976;73.248;2023-10-31T10:37:00;100476.63;;;-4.16;78.49
63819;BME280;49970;54.976;73.248;2023-10-31T10:39:32;100498.94;;;-4.06;78.99
63819;BME280;49970;54.976;73.248;2023-10-31T10:42:01;100506.75;;;-4.08;78.59
63819;BME280;49970;54.976;73.248;2023-10-31T10:44:34;100501.53;;;-4.06;79.21
63819;BME280;49970;54.976;73.248;2023-10-31T10:47:05;100511.06;;;-4.10;78.49
63819;BME280;49970;54.976;73.248;2023-10-31T10:49:36;100506.81;;;-4.17;78.78
63819;BME280;49970;54.976;73.248;2023-10-31T10:52:17;100511.19;;;-4.22;78.45
63819;BME280;49970;54.976;73.248;2023-10-31T10:54:58;100514.63;;;-4.24;78.98
63819;BME280;49970;54.976;73.248;2023-10-31T10:57:52;100518.06;;;-4.21;79.36
63819;BME280;49970;54.976;73.248;2023-10-31T11:00:25;100514.63;;;-4.24;79.07
63819;BME280;49970;54.976;73.248;2023-10-31T11:02:53;100522.38;;;-4.21;78.80
63819;BME280;49970;54.976;73.248;2023-10-31T11:05:23;100526.69;;;-4.27;79.37
63819;BME280;49970;54.976;73.248;2023-10-31T11:07:57;100538.75;;;-4.21;79.35
63819;BME280;49970;54.976;73.248;2023-10-31T11:10:25;100530.97;;;-4.19;78.97
63819;BME280;49970;54.976;73.248;2023-10-31T11:12:58;100543.03;;;-4.18;78.89
63819;BME280;49970;54.976;73.248;2023-10-31T11:15:27;100532.72;;;-4.23;79.05
63819;BME280;49970;54.976;73.248;2023-10-31T11:17:55;100546.44;;;-4.15;79.05
63819;BME280;49970;54.976;73.248;2023-10-31T11:20:25;100550.81;;;-4.20;78.91
63819;BME280;49970;54.976;73.248;2023-10-31T11:22:57;100555.97;;;-4.23;79.24
63819;BME280;49970;54.976;73.248;2023-10-31T11:25:26;100557.72;;;-4.27;79.83
63819;BME280;49970;54.976;73.248;2023-10-31T11:27:57;100555.19;;;-4.30;79.05
63819;BME280;49970;54.976;73.248;2023-10-31T11:30:40;100567.25;;;-4.32;78.96
63819;BME280;49970;54.976;73.248;2023-10-31T11:33:14;100556.94;;;-4.36;79.47
63819;BME280;49970;54.976;73.248;2023-10-31T11:35:42;100568.16;;;-4.37;79.34
63819;BME280;49970;54.976;73.248;2023-10-31T11:38:14;100565.56;;;-4.36;79.43
63819;BME280;49970;54.976;73.248;2023-10-31T11:43:17;100568.97;;;-4.32;80.00
63819;BME280;49970;54.976;73.248;2023-10-31T11:45:45;100567.31;;;-4.38;79.59
63819;BME280;49970;54.976;73.248;2023-10-31T11:48:15;100577.59;;;-4.35;79.80
63819;BME280;49970;54.976;73.248;2023-10-31T11:50:43;100582.81;;;-4.39;79.47
63819;BME280;49970;54.976;73.248;2023-10-31T11:53:14;100575.94;;;-4.45;79.71
63819;BME280;49970;54.976;73.248;2023-10-31T11:55:46;100596.63;;;-4.43;79.37
63819;BME280;49970;54.976;73.248;2023-10-31T11:58:20;100593.16;;;-4.41;79.57
63819;BME280;49970;54.976;73.248;2023-10-31T12:01:00;100605.19;;;-4.35;80.25
63819;BME280;49970;54.976;73.248;2023-10-31T12:03:27;100604.31;;;-4.33;79.92
63819;BME280;49970;54.976;73.248;2023-10-31T12:06:07;100609.53;;;-4.34;79.48
63819;BME280;49970;54.976;73.248;2023-10-31T12:08:44;100611.22;;;-4.35;79.85
63819;BME280;49970;54.976;73.248;2023-10-31T12:11:32;100622.44;;;-4.34;79.84
63819;BME280;49970;54.976;73.248;2023-10-31T12:14:02;100615.56;;;-4.37;80.10
63819;BME280;49970;54.976;73.248;2023-10-31T12:16:34;100614.69;;;-4.37;79.52
63819;BME280;49970;54.976;73.248;2023-10-31T12:19:05;100633.59;;;-4.31;79.82
63819;BME280;49970;54.976;73.248;2023-10-31T12:21:42;100631.06;;;-4.34;80.32
63819;BME280;49970;54.976;73.248;2023-10-31T12:24:12;100643.13;;;-4.34;79.82
63819;BME280;49970;54.976;73.248;2023-10-31T12:26:43;100637.94;;;-4.33;79.88
63819;BME280;49970;54.976;73.248;2023-10-31T12:29:20;100637.94;;;-4.36;79.42
63819;BME280;49970;54.976;73.248;2023-10-31T12:31:53;100631.06;;;-4.37;79.49
63819;BME280;49970;54.976;73.248;2023-10-31T12:34:27;100631.91;;;-4.36;79.21
63819;BME280;49970;54.976;73.248;2023-10-31T12:36:59;100631.09;;;-4.41;79.63
63819;BME280;49970;54.976;73.248;2023-10-31T12:39:49;100641.41;;;-4.40;79.74
63819;BME280;49970;54.976;73.248;2023-10-31T12:42:19;100645.75;;;-4.42;79.18
63819;BME280;49970;54.976;73.248;2023-10-31T12:44:50;100658.66;;;-4.40;78.75
63819;BME280;49970;54.976;73.248;2023-10-31T12:47:23;100659.53;;;-4.41;79.10
63819;BME280;49970;54.976;73.248;2023-10-31T12:50:13;100658.66;;;-4.40;79.56
63819;BME280;49970;54.976;73.248;2023-10-31T12:53:00;100670.72;;;-4.41;79.34
63819;BME280;49970;54.976;73.248;2023-10-31T12:55:38;100668.19;;;-4.47;79.43
63819;BME280;49970;54.976;73.248;2023-10-31T12:58:08;100680.19;;;-4.40;79.10
63819;BME280;49970;54.976;73.248;2023-10-31T13:00:38;100696.56;;;-4.39;79.92
63819;BME280;49970;54.976;73.248;2023-10-31T13:03:08;100701.75;;;-4.38;79.46
63819;BME280;49970;54.976;73.248;2023-10-31T13:05:41;100700.03;;;-4.37;79.05
63819;BME280;49970;54.976;73.248;2023-10-31T13:08:34;100695.72;;;-4.41;79.37
63819;BME280;49970;54.976;73.248;2023-10-31T13:12:02;100686.31;;;-4.55;79.29
63819;BME280;49970;54.976;73.248;2023-10-31T13:14:29;100699.19;;;-4.45;79.41